Terminal Aerodrome Forecast
Issued by NWS

Home | Current Version | Previous Version | Text Only | Print | Product List | Glossary Off
Versions: 1 2 3 4 5 6 7 8 9 10 11 12 13 14 15 16

000
FTUS43 KGRB 280520
TAFAUW
TAF
KAUW 280520Z 2806/2906 13004KT 6SM BR SCT005 BKN150
      TEMPO 2806/2808 1/2SM -SHRA FG OVC005
     FM280800 14004KT 2SM BR SCT003 OVC008
      TEMPO 2808/2812 1/2SM -SHRA FG OVC003
     FM281500 16008KT P6SM VCSH OVC008
     FM281700 17009KT P6SM VCSH BKN020
     FM281900 18010KT P6SM VCSH BKN040
     FM290000 19008KT P6SM SHRA BKN040 BKN070
     FM290400 18004KT P6SM SHRA BKN040 BKN070=

USA.gov is the U.S. government's official web portal to all federal, state and local government web resources and services.